createdAt,value
2023-05-04T00:01:19.625Z,7.90
2023-05-04T00:03:47.695Z,8.00
2023-05-04T00:06:16.422Z,8.13
2023-05-04T00:08:44.444Z,7.85
2023-05-04T00:11:12.615Z,7.88
2023-05-04T00:13:40.577Z,8.63
2023-05-04T00:16:11.084Z,8.32
2023-05-04T00:18:39.581Z,8.40
2023-05-04T00:21:08.074Z,9.02
2023-05-04T00:23:36.306Z,9.27
2023-05-04T00:26:04.303Z,8.95
2023-05-04T00:28:32.254Z,9.02
2023-05-04T00:31:00.279Z,10.00
2023-05-04T00:33:29.626Z,8.85
2023-05-04T00:35:57.620Z,8.65
2023-05-04T00:38:25.608Z,9.50
2023-05-04T00:40:53.657Z,9.98
2023-05-04T00:43:21.735Z,9.25
2023-05-04T00:45:49.775Z,8.88
2023-05-04T00:48:17.766Z,8.57
2023-05-04T00:50:47.187Z,9.70
2023-05-04T00:53:15.416Z,8.70
2023-05-04T00:55:43.417Z,8.98
2023-05-04T00:58:11.567Z,9.68
2023-05-04T01:00:39.638Z,9.60
2023-05-04T01:03:07.918Z,9.48
2023-05-04T01:05:39.577Z,10.80
2023-05-04T01:08:16.606Z,9.80
2023-05-04T01:10:51.011Z,9.63
2023-05-04T01:13:22.461Z,9.18
2023-05-04T01:15:50.980Z,9.77
2023-05-04T01:18:19.042Z,9.98
2023-05-04T01:20:47.097Z,9.80
2023-05-04T01:23:16.604Z,10.48
2023-05-04T01:25:49.626Z,9.52
2023-05-04T01:28:20.853Z,10.20
2023-05-04T01:30:52.472Z,10.05
2023-05-04T01:33:22.168Z,9.60
2023-05-04T01:35:50.992Z,11.02
2023-05-04T01:38:21.175Z,9.82
2023-05-04T01:40:49.151Z,9.57
2023-05-04T01:43:17.095Z,10.00
2023-05-04T01:45:45.063Z,9.77
2023-05-04T01:48:13.044Z,9.25
2023-05-04T01:50:41.107Z,10.20
2023-05-04T01:53:09.246Z,10.38
2023-05-04T01:55:38.685Z,11.13
2023-05-04T01:58:06.722Z,10.38
2023-05-04T02:00:34.684Z,11.20
2023-05-04T02:03:02.875Z,10.23
2023-05-04T02:05:30.984Z,10.02
2023-05-04T02:07:59.056Z,10.23
2023-05-04T02:10:27.007Z,11.25
2023-05-04T02:12:56.675Z,11.27
2023-05-04T02:15:24.684Z,10.07
2023-05-04T02:17:52.806Z,10.45
2023-05-04T02:20:21.048Z,11.10
2023-05-04T02:22:49.046Z,11.25
2023-05-04T02:25:17.123Z,10.48
2023-05-04T02:27:45.099Z,12.05
2023-05-04T02:30:15.597Z,10.82
2023-05-04T02:32:43.676Z,10.20
2023-05-04T02:35:12.999Z,10.10
2023-05-04T02:37:40.981Z,10.90
2023-05-04T02:40:10.021Z,10.68
2023-05-04T02:42:38.064Z,11.18
2023-05-04T02:45:07.466Z,10.38
2023-05-04T02:47:36.884Z,11.00
2023-05-04T02:50:05.678Z,10.55
2023-05-04T02:52:33.967Z,10.88
2023-05-04T02:55:03.178Z,10.55
2023-05-04T02:57:31.251Z,11.18
2023-05-04T02:59:59.214Z,10.55
2023-05-04T03:02:27.330Z,10.63
2023-05-04T03:04:56.638Z,10.82
2023-05-04T03:07:24.633Z,10.65
2023-05-04T03:09:52.633Z,10.32
2023-05-04T03:12:20.918Z,10.98
2023-05-04T03:14:48.863Z,10.52
2023-05-04T03:17:16.856Z,10.43
2023-05-04T03:19:44.942Z,10.35
2023-05-04T03:22:14.342Z,10.15
2023-05-04T03:24:43.945Z,11.30
2023-05-04T03:27:12.352Z,11.05
2023-05-04T03:29:40.368Z,9.43
2023-05-04T03:32:08.445Z,10.77
2023-05-04T03:34:36.554Z,10.18
2023-05-04T03:37:04.605Z,10.70
2023-05-04T03:39:33.949Z,10.98
2023-05-04T03:42:02.699Z,10.60
2023-05-04T03:44:30.693Z,10.20
2023-05-04T03:46:58.662Z,10.88
2023-05-04T03:49:26.992Z,10.90
2023-05-04T03:51:54.959Z,10.63
2023-05-04T03:54:23.048Z,10.10
2023-05-04T03:56:52.344Z,10.63
2023-05-04T03:59:20.463Z,10.02
2023-05-04T04:01:48.449Z,9.73
2023-05-04T04:04:16.524Z,10.00
2023-05-04T04:06:44.926Z,10.30
2023-05-04T04:09:13.030Z,10.18
2023-05-04T04:11:41.060Z,10.75
2023-05-04T04:14:10.484Z,10.85
2023-05-04T04:16:38.631Z,9.93
2023-05-04T04:19:07.910Z,10.13
2023-05-04T04:21:35.951Z,10.75
2023-05-04T04:24:04.089Z,9.98
2023-05-04T04:26:32.394Z,10.52
2023-05-04T04:29:00.452Z,9.95
2023-05-04T04:31:30.471Z,9.82
2023-05-04T04:33:59.254Z,10.18
2023-05-04T04:36:27.268Z,9.90
2023-05-04T04:38:55.255Z,10.25
2023-05-04T04:41:23.307Z,10.10
2023-05-04T04:43:51.266Z,9.93
2023-05-04T04:46:19.285Z,10.48
2023-05-04T04:48:49.185Z,10.15
2023-05-04T04:51:17.207Z,10.07
2023-05-04T04:53:45.412Z,9.38
2023-05-04T04:56:13.454Z,10.13
2023-05-04T04:58:41.542Z,10.55
2023-05-04T05:01:09.614Z,10.90
2023-05-04T05:03:37.693Z,10.20
2023-05-04T05:06:07.195Z,10.45
2023-05-04T05:08:35.188Z,10.15
2023-05-04T05:11:03.312Z,10.18
2023-05-04T05:13:31.553Z,10.18
2023-05-04T05:15:59.551Z,9.82
2023-05-04T05:18:29.329Z,9.88
2023-05-04T05:20:57.744Z,10.80
2023-05-04T05:23:27.077Z,10.13
2023-05-04T05:25:55.817Z,9.23
2023-05-04T05:28:24.031Z,9.85
2023-05-04T05:30:52.371Z,10.23
2023-05-04T05:33:20.503Z,9.70
2023-05-04T05:35:48.447Z,9.85
2023-05-04T05:38:17.643Z,9.95
2023-05-04T05:40:48.619Z,10.32
2023-05-04T05:43:16.667Z,9.80
2023-05-04T05:45:44.625Z,9.57
2023-05-04T05:48:12.651Z,9.93
2023-05-04T05:50:40.746Z,10.05
2023-05-04T05:53:08.679Z,10.30
2023-05-04T05:55:36.638Z,10.25
2023-05-04T05:58:06.584Z,9.48
2023-05-04T06:00:34.577Z,10.20
2023-05-04T06:03:02.651Z,10.05
2023-05-04T06:05:30.800Z,10.40
2023-05-04T06:07:58.776Z,10.75
2023-05-04T06:10:26.837Z,11.20
2023-05-04T06:12:54.890Z,10.32
2023-05-04T06:15:24.282Z,10.32
2023-05-04T06:17:52.298Z,10.10
2023-05-04T06:20:20.424Z,9.88
2023-05-04T06:22:48.469Z,11.18
2023-05-04T06:25:16.448Z,10.60
2023-05-04T06:27:44.571Z,10.32
2023-05-04T06:30:13.627Z,11.35
2023-05-04T06:32:43.066Z,10.65
2023-05-04T06:35:11.738Z,10.68
2023-05-04T06:37:39.745Z,10.88
2023-05-04T06:40:09.368Z,10.35
2023-05-04T06:42:37.521Z,10.60
2023-05-04T06:45:06.297Z,10.27
2023-05-04T06:47:36.722Z,10.43
2023-05-04T06:50:10.614Z,10.65
2023-05-04T06:52:41.135Z,9.55
2023-05-04T06:55:09.770Z,9.85
2023-05-04T06:57:37.920Z,10.18
2023-05-04T07:00:07.053Z,10.13
2023-05-04T07:02:35.761Z,10.95
2023-05-04T07:05:03.981Z,10.93
2023-05-04T07:07:33.508Z,10.40
2023-05-04T07:10:01.636Z,10.10
2023-05-04T07:12:29.762Z,10.02
2023-05-04T07:14:57.740Z,10.52
2023-05-04T07:17:26.143Z,10.85
2023-05-04T07:19:54.171Z,11.02
2023-05-04T07:22:22.249Z,10.85
2023-05-04T07:24:51.617Z,10.80
2023-05-04T07:27:19.579Z,9.82
2023-05-04T07:29:48.138Z,10.00
2023-05-04T07:32:16.185Z,10.32
2023-05-04T07:34:46.435Z,9.85
2023-05-04T07:37:15.779Z,10.07
2023-05-04T07:39:43.852Z,9.63
2023-05-04T07:42:13.233Z,9.70
2023-05-04T07:44:41.288Z,9.82
2023-05-04T07:47:09.353Z,9.75
2023-05-04T07:49:37.338Z,9.75
2023-05-04T07:52:05.776Z,9.77
2023-05-04T07:54:33.802Z,9.40
2023-05-04T07:57:04.313Z,9.20
2023-05-04T07:59:33.984Z,8.90
2023-05-04T08:02:02.053Z,8.23
2023-05-04T08:04:30.053Z,8.80
2023-05-04T08:06:58.021Z,8.65
2023-05-04T08:09:26.018Z,9.40
2023-05-04T08:11:55.009Z,8.80
2023-05-04T08:14:23.047Z,8.68
2023-05-04T08:16:52.400Z,8.85
2023-05-04T08:19:20.540Z,8.77
2023-05-04T08:21:48.769Z,8.90
2023-05-04T08:24:18.281Z,8.82
2023-05-04T08:26:55.516Z,8.75
2023-05-04T08:29:32.171Z,9.05
2023-05-04T08:32:01.623Z,9.07
2023-05-04T08:34:29.622Z,8.77
2023-05-04T08:36:57.981Z,8.73
2023-05-04T08:39:26.134Z,8.80
2023-05-04T08:41:54.141Z,8.88
2023-05-04T08:44:23.159Z,8.70
2023-05-04T08:46:53.406Z,9.40
2023-05-04T08:49:24.451Z,8.25
2023-05-04T08:51:52.818Z,9.13
2023-05-04T08:54:22.213Z,9.30
2023-05-04T08:56:55.045Z,7.75
2023-05-04T08:59:24.305Z,7.95
2023-05-04T09:01:57.005Z,8.20
2023-05-04T09:04:29.328Z,8.20
2023-05-04T09:06:58.512Z,8.60
2023-05-04T09:09:28.754Z,8.68
2023-05-04T09:11:56.751Z,8.27
2023-05-04T09:14:34.051Z,9.60
2023-05-04T09:17:02.393Z,8.00
2023-05-04T09:19:34.774Z,8.02
2023-05-04T09:24:31.556Z,8.45
2023-05-04T09:27:10.324Z,8.73
2023-05-04T09:29:39.740Z,9.02
2023-05-04T09:32:12.370Z,8.70
2023-05-04T09:34:50.533Z,8.73
2023-05-04T09:37:20.751Z,7.45
2023-05-04T09:39:56.086Z,7.70
2023-05-04T09:42:24.781Z,8.10
2023-05-04T09:45:03.292Z,7.82
2023-05-04T09:47:35.609Z,8.13
2023-05-04T09:50:20.775Z,8.30
2023-05-04T09:52:49.976Z,8.25
2023-05-04T09:55:19.432Z,8.40
2023-05-04T09:57:49.000Z,8.07
2023-05-04T10:00:19.056Z,8.50
2023-05-04T10:02:48.929Z,7.80
2023-05-04T10:05:21.681Z,8.00
2023-05-04T10:07:49.804Z,8.02
2023-05-04T10:10:17.765Z,8.20
2023-05-04T10:12:46.424Z,8.20
2023-05-04T10:15:15.937Z,8.18
2023-05-04T10:18:04.449Z,8.32
2023-05-04T10:20:51.945Z,7.78
2023-05-04T10:23:52.144Z,7.82
2023-05-04T10:26:48.216Z,7.88
2023-05-04T10:29:23.898Z,7.88
2023-05-04T10:31:53.458Z,8.73
2023-05-04T10:34:26.896Z,8.27
2023-05-04T10:36:56.988Z,8.10
2023-05-04T10:39:26.311Z,7.47
2023-05-04T10:42:02.102Z,7.85
2023-05-04T10:44:31.006Z,7.65
2023-05-04T10:47:00.802Z,8.07
2023-05-04T10:49:29.050Z,7.70
2023-05-04T10:52:12.104Z,8.40
2023-05-04T10:54:42.095Z,7.93
2023-05-04T10:57:11.230Z,8.02
2023-05-04T10:59:40.424Z,7.82
2023-05-04T11:02:08.732Z,8.10
2023-05-04T11:04:37.328Z,7.68
2023-05-04T11:07:08.492Z,7.68
2023-05-04T11:09:40.423Z,7.97
2023-05-04T11:12:10.882Z,7.65
2023-05-04T11:14:43.127Z,7.80
2023-05-04T11:19:52.324Z,7.70
2023-05-04T11:22:20.920Z,7.80
2023-05-04T11:24:50.594Z,7.85
2023-05-04T11:27:26.020Z,7.70
2023-05-04T11:29:55.686Z,8.10
2023-05-04T11:32:23.831Z,8.10
2023-05-04T11:34:51.937Z,7.72
2023-05-04T11:37:19.911Z,7.97
2023-05-04T11:39:48.390Z,8.93
2023-05-04T11:42:18.494Z,8.55
2023-05-04T11:44:46.827Z,8.95
2023-05-04T11:47:15.717Z,8.43
2023-05-04T11:49:44.094Z,9.27
2023-05-04T11:52:12.354Z,8.77
2023-05-04T11:54:40.359Z,8.63
2023-05-04T11:57:08.419Z,7.97
2023-05-04T11:59:37.791Z,8.52
2023-05-04T12:02:05.890Z,8.57
2023-05-04T12:04:34.048Z,8.52
2023-05-04T12:07:07.206Z,9.13
2023-05-04T12:09:45.215Z,8.80
2023-05-04T12:12:13.276Z,8.93
2023-05-04T12:14:50.224Z,8.80
2023-05-04T12:17:18.291Z,8.38
2023-05-04T12:19:51.190Z,9.10
2023-05-04T12:22:19.413Z,8.50
2023-05-04T12:24:47.451Z,8.60
2023-05-04T12:27:15.868Z,9.07
2023-05-04T12:29:43.873Z,9.60
2023-05-04T12:32:13.245Z,8.90
2023-05-04T12:34:41.323Z,8.25
2023-05-04T12:37:09.759Z,8.70
2023-05-04T12:39:37.769Z,8.63
2023-05-04T12:42:05.951Z,8.35
2023-05-04T12:44:34.518Z,7.38
2023-05-04T12:47:02.773Z,8.73
2023-05-04T12:49:32.125Z,9.77
2023-05-04T12:52:00.126Z,8.80
2023-05-04T12:54:28.107Z,9.52
2023-05-04T12:56:56.217Z,8.50
2023-05-04T12:59:24.937Z,9.48
2023-05-04T13:01:53.012Z,10.20
2023-05-04T13:04:21.143Z,10.20
2023-05-04T13:06:50.468Z,10.45
2023-05-04T13:09:20.709Z,11.00
2023-05-04T13:11:49.677Z,11.40
2023-05-04T13:14:17.644Z,11.30
2023-05-04T13:16:45.633Z,10.85
2023-05-04T13:19:13.657Z,10.13
2023-05-04T13:21:41.681Z,11.43
2023-05-04T13:24:11.422Z,12.05
2023-05-04T13:26:39.626Z,11.15
2023-05-04T13:29:07.628Z,10.73
2023-05-04T13:31:35.712Z,10.77
2023-05-04T13:34:03.788Z,11.57
2023-05-04T13:36:32.274Z,11.40
2023-05-04T13:39:00.852Z,11.93
2023-05-04T13:41:30.180Z,11.52
2023-05-04T13:43:58.189Z,11.50
2023-05-04T13:46:26.213Z,11.38
2023-05-04T13:48:56.394Z,11.65
2023-05-04T13:51:25.074Z,12.35
2023-05-04T13:53:53.048Z,12.40
2023-05-04T13:56:21.031Z,12.50
2023-05-04T13:58:50.426Z,12.75
2023-05-04T14:01:18.417Z,12.85
2023-05-04T14:03:46.863Z,12.90
2023-05-04T14:06:15.159Z,12.18
2023-05-04T14:08:43.116Z,12.65
2023-05-04T14:11:11.116Z,14.13
2023-05-04T14:13:39.053Z,13.10
2023-05-04T14:16:08.701Z,13.15
2023-05-04T14:18:37.035Z,13.90
2023-05-04T14:21:05.164Z,14.23
2023-05-04T14:23:33.141Z,14.02
2023-05-04T14:26:01.094Z,13.27
2023-05-04T14:28:29.072Z,13.00
2023-05-04T14:30:58.116Z,13.15
2023-05-04T14:33:27.497Z,13.60
2023-05-04T14:35:55.448Z,12.60
2023-05-04T14:38:23.388Z,13.75
2023-05-04T14:40:52.944Z,13.38
2023-05-04T14:43:20.964Z,13.55
2023-05-04T14:45:48.966Z,14.02
2023-05-04T14:48:17.607Z,14.15
2023-05-04T14:50:47.093Z,13.00
2023-05-04T14:53:15.121Z,13.52
2023-05-04T14:55:43.557Z,13.07
2023-05-04T14:58:11.994Z,13.50
2023-05-04T15:00:40.009Z,12.63
2023-05-04T15:03:08.517Z,12.30
2023-05-04T15:05:36.876Z,12.07
2023-05-04T15:08:06.809Z,12.82
2023-05-04T15:10:35.079Z,11.95
2023-05-04T15:13:03.317Z,11.93
2023-05-04T15:15:31.401Z,11.80
2023-05-04T15:17:59.503Z,11.88
2023-05-04T15:20:27.758Z,11.15
2023-05-04T15:22:55.713Z,10.95
2023-05-04T15:25:25.137Z,11.10
2023-05-04T15:27:53.183Z,11.75
2023-05-04T15:30:21.548Z,11.20
2023-05-04T15:32:49.667Z,10.90
2023-05-04T15:35:17.682Z,9.93
2023-05-04T15:37:45.880Z,9.93
2023-05-04T15:40:14.589Z,9.95
2023-05-04T15:42:43.929Z,10.13
2023-05-04T15:45:11.977Z,9.20
2023-05-04T15:47:39.981Z,8.82
2023-05-04T15:50:08.802Z,7.93
2023-05-04T15:52:37.117Z,7.03
2023-05-04T15:55:20.333Z,7.90
2023-05-04T15:57:54.786Z,7.18
2023-05-04T16:00:23.563Z,6.63
2023-05-04T16:02:51.934Z,8.00
2023-05-04T16:05:20.372Z,6.68
2023-05-04T16:07:48.607Z,8.63
2023-05-04T16:10:16.692Z,8.57
2023-05-04T16:12:44.759Z,7.45
2023-05-04T16:15:15.605Z,7.22
2023-05-04T16:17:43.662Z,7.53
2023-05-04T16:20:12.395Z,6.97
2023-05-04T16:22:40.459Z,7.93
2023-05-04T16:25:11.107Z,7.95
2023-05-04T16:27:39.829Z,8.23
2023-05-04T16:30:09.662Z,8.70
2023-05-04T16:32:39.420Z,8.13
2023-05-04T16:35:08.744Z,8.25
2023-05-04T16:37:37.154Z,7.90
2023-05-04T16:40:14.031Z,7.70
2023-05-04T16:42:42.216Z,8.52
2023-05-04T16:45:13.370Z,9.68
2023-05-04T16:47:43.116Z,9.82
2023-05-04T16:50:11.805Z,8.88
2023-05-04T16:52:40.019Z,9.30
2023-05-04T16:55:11.615Z,9.35
2023-05-04T16:57:40.318Z,9.52
2023-05-04T17:00:10.559Z,8.90
2023-05-04T17:02:38.721Z,8.88
2023-05-04T17:05:10.388Z,9.13
2023-05-04T17:07:39.649Z,9.10
2023-05-04T17:10:09.315Z,8.63
2023-05-04T17:12:37.707Z,8.05
2023-05-04T17:15:07.254Z,9.02
2023-05-04T17:17:35.673Z,7.93
2023-05-04T17:20:03.771Z,8.35
2023-05-04T17:22:33.781Z,9.05
2023-05-04T17:25:02.142Z,9.20
2023-05-04T17:27:30.660Z,10.07
2023-05-04T17:29:58.597Z,9.98
2023-05-04T17:32:26.721Z,9.52
2023-05-04T17:35:01.256Z,9.88
2023-05-04T17:37:35.433Z,10.52
2023-05-04T17:40:04.164Z,11.05
2023-05-04T17:42:32.264Z,10.73
2023-05-04T17:45:00.380Z,11.18
2023-05-04T17:47:28.434Z,11.27
2023-05-04T17:49:58.691Z,10.50
2023-05-04T17:52:26.969Z,10.50
2023-05-04T17:54:56.363Z,10.55
2023-05-04T17:57:24.343Z,10.88
2023-05-04T17:59:52.317Z,10.27
2023-05-04T18:02:20.416Z,11.90
2023-05-04T18:04:48.429Z,11.43
2023-05-04T18:07:16.421Z,12.13
2023-05-04T18:09:44.394Z,10.27
2023-05-04T18:12:13.707Z,11.32
2023-05-04T18:14:41.700Z,10.73
2023-05-04T18:17:09.688Z,11.13
2023-05-04T18:19:37.681Z,10.85
2023-05-04T18:22:05.708Z,11.30
2023-05-04T18:24:34.087Z,10.30
2023-05-04T18:27:02.626Z,11.52
2023-05-04T18:29:32.083Z,11.43
2023-05-04T18:32:01.185Z,11.18
2023-05-04T18:34:29.217Z,10.65
2023-05-04T18:36:57.203Z,10.00
2023-05-04T18:39:25.221Z,10.85
2023-05-04T18:41:53.170Z,11.00
2023-05-04T18:44:21.209Z,11.50
2023-05-04T18:46:52.583Z,11.18
2023-05-04T18:49:20.514Z,12.32
2023-05-04T18:51:48.577Z,11.80
2023-05-04T18:54:17.219Z,11.00
2023-05-04T18:56:45.161Z,12.07
2023-05-04T18:59:13.154Z,11.00
2023-05-04T19:01:41.374Z,11.27
2023-05-04T19:04:10.760Z,10.55
2023-05-04T19:06:38.697Z,10.82
2023-05-04T19:09:08.084Z,11.10
2023-05-04T19:11:36.230Z,11.32
2023-05-04T19:14:04.268Z,11.15
2023-05-04T19:16:32.234Z,10.55
2023-05-04T19:19:00.318Z,11.35
2023-05-04T19:21:29.688Z,10.98
2023-05-04T19:23:57.667Z,11.50
2023-05-04T19:26:25.703Z,11.75
2023-05-04T19:28:53.712Z,10.95
2023-05-04T19:31:21.805Z,11.55
2023-05-04T19:33:50.129Z,11.38
2023-05-04T19:36:18.414Z,11.60
2023-05-04T19:38:47.810Z,12.75
2023-05-04T19:41:16.929Z,12.45
2023-05-04T19:43:45.148Z,12.18
2023-05-04T19:46:13.155Z,11.40
2023-05-04T19:48:41.856Z,12.23
2023-05-04T19:51:09.804Z,12.15
2023-05-04T19:53:37.851Z,12.10
2023-05-04T19:56:07.359Z,11.70
2023-05-04T19:58:35.389Z,11.57
2023-05-04T20:01:03.641Z,11.05
2023-05-04T20:03:31.684Z,11.65
2023-05-04T20:05:59.815Z,11.38
2023-05-04T20:08:27.942Z,10.85
2023-05-04T20:10:56.591Z,11.07
2023-05-04T20:13:26.412Z,10.95
2023-05-04T20:15:54.529Z,11.23
2023-05-04T20:18:23.257Z,10.85
2023-05-04T20:20:52.879Z,10.90
2023-05-04T20:23:20.932Z,10.85
2023-05-04T20:25:49.129Z,10.48
2023-05-04T20:28:17.776Z,11.20
2023-05-04T20:30:47.178Z,10.18
2023-05-04T20:33:15.203Z,10.40
2023-05-04T20:35:44.069Z,10.90
2023-05-04T20:38:12.240Z,10.95
2023-05-04T20:40:40.243Z,10.30
2023-05-04T20:43:08.300Z,10.52
2023-05-04T20:45:36.486Z,10.50
2023-05-04T20:48:06.349Z,10.55
2023-05-04T20:50:34.384Z,9.48
2023-05-04T20:53:05.011Z,10.27
2023-05-04T20:55:33.194Z,9.23
2023-05-04T20:58:01.221Z,9.00
2023-05-04T21:00:29.779Z,8.57
2023-05-04T21:02:58.332Z,8.27
2023-05-04T21:05:27.787Z,9.43
2023-05-04T21:07:56.509Z,8.52
2023-05-04T21:10:27.289Z,8.90
2023-05-04T21:12:56.935Z,7.97
2023-05-04T21:15:25.014Z,8.73
2023-05-04T21:17:53.497Z,9.13
2023-05-04T21:20:21.735Z,8.13
2023-05-04T21:22:51.432Z,10.00
2023-05-04T21:25:19.391Z,8.27
2023-05-04T21:27:47.339Z,8.38
2023-05-04T21:30:15.487Z,8.57
2023-05-04T21:32:43.685Z,8.30
2023-05-04T21:35:11.719Z,9.10
2023-05-04T21:37:39.708Z,9.70
2023-05-04T21:40:10.412Z,9.20
2023-05-04T21:42:38.486Z,8.82
2023-05-04T21:45:07.899Z,8.60
2023-05-04T21:47:36.223Z,8.45
2023-05-04T21:50:04.929Z,8.85
2023-05-04T21:52:32.934Z,9.05
2023-05-04T21:55:01.061Z,9.75
2023-05-04T21:57:33.218Z,9.15
2023-05-04T22:02:29.062Z,8.25
2023-05-04T22:04:57.103Z,8.90
2023-05-04T22:07:25.113Z,8.85
2023-05-04T22:09:53.263Z,8.73
2023-05-04T22:12:21.506Z,9.07
2023-05-04T22:14:50.947Z,10.93
2023-05-04T22:17:18.927Z,10.80
2023-05-04T22:19:47.012Z,11.43
2023-05-04T22:22:15.073Z,10.32
2023-05-04T22:24:43.033Z,10.18
2023-05-04T22:27:10.973Z,10.55
2023-05-04T22:29:39.054Z,10.82
2023-05-04T22:32:08.768Z,9.85
2023-05-04T22:34:36.825Z,10.23
2023-05-04T22:37:04.828Z,10.68
2023-05-04T22:39:32.843Z,10.40
2023-05-04T22:42:01.441Z,10.23
2023-05-04T22:44:29.476Z,10.10
2023-05-04T22:46:57.617Z,10.18
2023-05-04T22:49:27.016Z,10.32
2023-05-04T22:51:55.005Z,10.45
2023-05-04T22:54:22.959Z,11.13
2023-05-04T22:56:50.998Z,10.40
2023-05-04T22:59:19.035Z,10.63
2023-05-04T23:01:47.710Z,9.88
2023-05-04T23:04:16.682Z,10.38
2023-05-04T23:06:46.353Z,10.50
2023-05-04T23:09:15.224Z,10.63
2023-05-04T23:11:43.345Z,10.57
2023-05-04T23:14:11.341Z,10.70
2023-05-04T23:16:39.303Z,9.15
2023-05-04T23:19:07.287Z,10.52
2023-05-04T23:21:35.327Z,9.85
2023-05-04T23:24:04.990Z,10.55
2023-05-04T23:26:33.106Z,10.70
2023-05-04T23:29:01.111Z,12.00
2023-05-04T23:31:29.918Z,14.63
2023-05-04T23:33:57.987Z,14.75
2023-05-04T23:36:26.005Z,14.55
2023-05-04T23:38:54.011Z,12.52
2023-05-04T23:41:24.273Z,10.88
2023-05-04T23:43:52.303Z,10.05
2023-05-04T23:46:20.418Z,8.90
2023-05-04T23:48:48.365Z,8.63
2023-05-04T23:51:16.430Z,8.50
2023-05-04T23:53:44.493Z,7.55
2023-05-04T23:56:13.017Z,7.30
2023-05-04T23:58:43.088Z,7.28
